createdAt,value
2022-12-03T00:01:20.999Z,-1.58
2022-12-03T00:03:48.587Z,-1.57
2022-12-03T00:06:17.682Z,-1.54
2022-12-03T00:08:45.180Z,-1.50
2022-12-03T00:11:12.648Z,-1.46
2022-12-03T00:13:40.154Z,-1.44
2022-12-03T00:16:07.776Z,-1.41
2022-12-03T00:18:35.262Z,-1.41
2022-12-03T00:21:02.804Z,-1.44
2022-12-03T00:23:30.270Z,-1.44
2022-12-03T00:25:58.891Z,-1.44
2022-12-03T00:28:26.344Z,-1.46
2022-12-03T00:30:54.289Z,-1.45
2022-12-03T00:33:22.636Z,-1.43
2022-12-03T00:35:50.124Z,-1.43
2022-12-03T00:38:17.907Z,-1.44
2022-12-03T00:40:45.433Z,-1.46
2022-12-03T00:43:12.991Z,-1.46
2022-12-03T00:45:40.485Z,-1.44
2022-12-03T00:48:07.982Z,-1.45
2022-12-03T00:50:35.496Z,-1.43
2022-12-03T00:53:03.117Z,-1.41
2022-12-03T00:55:30.872Z,-1.39
2022-12-03T00:57:58.414Z,-1.36
2022-12-03T01:00:25.850Z,-1.33
2022-12-03T01:02:54.089Z,-1.31
2022-12-03T01:05:21.816Z,-1.28
2022-12-03T01:07:49.395Z,-1.27
2022-12-03T01:10:17.616Z,-1.31
2022-12-03T01:12:45.607Z,-1.34
2022-12-03T01:15:13.250Z,-1.36
2022-12-03T01:17:40.749Z,-1.36
2022-12-03T01:20:10.079Z,-1.38
2022-12-03T01:22:37.789Z,-1.37
2022-12-03T01:25:06.157Z,-1.36
2022-12-03T01:27:33.684Z,-1.33
2022-12-03T01:30:01.170Z,-1.28
2022-12-03T01:32:28.667Z,-1.25
2022-12-03T01:34:56.831Z,-1.23
2022-12-03T01:37:26.866Z,-1.23
2022-12-03T01:39:54.552Z,-1.21
2022-12-03T01:42:26.225Z,-1.20
2022-12-03T01:44:56.880Z,-1.19
2022-12-03T01:47:29.857Z,-1.21
2022-12-03T01:50:21.179Z,-1.23
2022-12-03T01:52:49.223Z,-1.27
2022-12-03T01:55:21.205Z,-1.29
2022-12-03T01:57:52.657Z,-1.32
2022-12-03T02:00:23.299Z,-1.31
2022-12-03T02:02:55.038Z,-1.29
2022-12-03T02:05:26.439Z,-1.26
2022-12-03T02:07:54.309Z,-1.23
2022-12-03T02:10:30.777Z,-1.23
2022-12-03T02:13:03.135Z,-1.22
2022-12-03T02:15:30.867Z,-1.20
2022-12-03T02:17:58.481Z,-1.20
2022-12-03T02:20:26.148Z,-1.23
2022-12-03T02:22:56.617Z,-1.25
2022-12-03T02:25:34.526Z,-1.25
2022-12-03T02:28:03.887Z,-1.24
2022-12-03T02:30:32.357Z,-1.25
2022-12-03T02:33:00.975Z,-1.24
2022-12-03T02:35:31.469Z,-1.24
2022-12-03T02:38:05.935Z,-1.23
2022-12-03T02:40:34.513Z,-1.19
2022-12-03T02:43:04.084Z,-1.17
2022-12-03T02:45:39.621Z,-1.14
2022-12-03T02:48:16.063Z,-1.15
2022-12-03T02:50:54.393Z,-1.16
2022-12-03T02:53:30.824Z,-1.15
2022-12-03T02:56:01.504Z,-1.19
2022-12-03T02:58:32.762Z,-1.20
2022-12-03T03:01:01.834Z,-1.22
2022-12-03T03:03:32.393Z,-1.22
2022-12-03T03:06:02.000Z,-1.22
2022-12-03T03:08:30.843Z,-1.21
2022-12-03T03:11:01.395Z,-1.17
2022-12-03T03:13:31.108Z,-1.17
2022-12-03T03:15:59.318Z,-1.16
2022-12-03T03:18:26.972Z,-1.15
2022-12-03T03:20:54.603Z,-1.13
2022-12-03T03:23:23.966Z,-1.11
2022-12-03T03:26:07.332Z,-1.10
2022-12-03T03:28:38.997Z,-1.12
2022-12-03T03:31:09.973Z,-1.14
2022-12-03T03:33:43.513Z,-1.16
2022-12-03T03:36:12.176Z,-1.21
2022-12-03T03:38:41.269Z,-1.23
2022-12-03T03:41:10.880Z,-1.24
2022-12-03T03:43:40.399Z,-1.26
2022-12-03T03:46:09.158Z,-1.25
2022-12-03T03:48:37.169Z,-1.23
2022-12-03T03:51:09.533Z,-1.20
2022-12-03T03:53:41.291Z,-1.22
2022-12-03T03:56:09.669Z,-1.19
2022-12-03T03:58:38.168Z,-1.16
2022-12-03T04:01:05.961Z,-1.12
2022-12-03T04:03:34.514Z,-1.11
2022-12-03T04:06:02.348Z,-1.12
2022-12-03T04:08:30.710Z,-1.10
2022-12-03T04:11:14.209Z,-1.09
2022-12-03T04:13:41.666Z,-1.07
2022-12-03T04:16:09.181Z,-1.06
2022-12-03T04:18:42.803Z,-1.04
2022-12-03T04:21:27.445Z,-1.04
2022-12-03T04:23:55.231Z,-1.06
2022-12-03T04:26:38.828Z,-1.05
2022-12-03T04:29:06.400Z,-1.03
2022-12-03T04:31:50.021Z,-1.02
2022-12-03T04:34:33.684Z,-0.98
2022-12-03T04:37:01.395Z,-0.96
2022-12-03T04:39:29.043Z,-0.93
2022-12-03T04:41:56.704Z,-0.91
2022-12-03T04:44:40.194Z,-0.89
2022-12-03T04:47:16.227Z,-0.88
2022-12-03T04:49:46.535Z,-0.91
2022-12-03T04:52:16.244Z,-0.95
2022-12-03T04:54:43.926Z,-1.00
2022-12-03T04:57:12.012Z,-1.05
2022-12-03T04:59:40.019Z,-1.08
2022-12-03T05:02:07.962Z,-1.08
2022-12-03T05:04:35.877Z,-1.09
2022-12-03T05:07:03.617Z,-1.11
2022-12-03T05:09:31.276Z,-1.12
2022-12-03T05:11:58.836Z,-1.08
2022-12-03T05:14:26.287Z,-1.05
2022-12-03T05:16:53.833Z,-1.01
2022-12-03T05:19:41.459Z,-0.98
2022-12-03T05:22:08.947Z,-0.92
2022-12-03T05:24:36.430Z,-0.92
2022-12-03T05:27:04.054Z,-0.92
2022-12-03T05:29:31.524Z,-0.93
2022-12-03T05:31:58.976Z,-0.93
2022-12-03T05:34:26.512Z,-0.92
2022-12-03T05:36:53.970Z,-0.91
2022-12-03T05:39:21.966Z,-0.92
2022-12-03T05:42:05.439Z,-0.95
2022-12-03T05:44:32.922Z,-0.97
2022-12-03T05:47:00.578Z,-0.99
2022-12-03T05:49:28.083Z,-1.01
2022-12-03T05:51:58.700Z,-1.02
2022-12-03T05:54:26.500Z,-1.01
2022-12-03T05:56:53.966Z,-1.02
2022-12-03T05:59:21.486Z,-1.04
2022-12-03T06:01:49.043Z,-1.04
2022-12-03T06:04:16.512Z,-1.07
2022-12-03T06:06:44.051Z,-1.07
2022-12-03T06:09:11.614Z,-1.05
2022-12-03T06:11:40.297Z,-1.05
2022-12-03T06:14:08.362Z,-1.04
2022-12-03T06:16:35.860Z,-1.01
2022-12-03T06:19:03.368Z,-0.97
2022-12-03T06:21:30.945Z,-0.93
2022-12-03T06:23:58.498Z,-0.88
2022-12-03T06:26:25.963Z,-0.82
2022-12-03T06:28:53.415Z,-0.76
2022-12-03T06:31:21.017Z,-0.74
2022-12-03T06:33:48.578Z,-0.71
2022-12-03T06:36:21.399Z,-0.70
2022-12-03T06:38:50.493Z,-0.69
2022-12-03T06:41:17.967Z,-0.67
2022-12-03T06:43:45.663Z,-0.67
2022-12-03T06:46:13.218Z,-0.67
2022-12-03T06:48:40.750Z,-0.69
2022-12-03T06:51:08.276Z,-0.70
2022-12-03T06:53:35.795Z,-0.72
2022-12-03T06:56:03.387Z,-0.74
2022-12-03T06:58:30.917Z,-0.76
2022-12-03T07:00:58.372Z,-0.77
2022-12-03T07:03:25.915Z,-0.79
2022-12-03T07:05:53.584Z,-0.79
2022-12-03T07:08:21.127Z,-0.77
2022-12-03T07:10:48.736Z,-0.72
2022-12-03T07:13:16.384Z,-0.67
2022-12-03T07:15:43.888Z,-0.63
2022-12-03T07:18:11.423Z,-0.61
2022-12-03T07:20:39.284Z,-0.58
2022-12-03T07:23:06.772Z,-0.57
2022-12-03T07:25:34.249Z,-0.54
2022-12-03T07:28:01.759Z,-0.54
2022-12-03T07:30:29.846Z,-0.57
2022-12-03T07:32:57.394Z,-0.56
2022-12-03T07:35:24.930Z,-0.57
2022-12-03T07:37:52.449Z,-0.57
2022-12-03T07:40:19.902Z,-0.57
2022-12-03T07:42:47.396Z,-0.58
2022-12-03T07:45:14.930Z,-0.59
2022-12-03T07:47:42.385Z,-0.60
2022-12-03T07:50:10.553Z,-0.61
2022-12-03T07:52:38.046Z,-0.59
2022-12-03T07:55:06.324Z,-0.57
2022-12-03T07:57:33.802Z,-0.55
2022-12-03T08:00:01.674Z,-0.53
2022-12-03T08:02:29.314Z,-0.52
2022-12-03T08:04:57.195Z,-0.50
2022-12-03T08:07:24.842Z,-0.48
2022-12-03T08:09:52.407Z,-0.50
2022-12-03T08:12:44.497Z,-0.49
2022-12-03T08:15:16.434Z,-0.50
2022-12-03T08:17:45.934Z,-0.50
2022-12-03T08:20:19.564Z,-0.46
2022-12-03T08:22:50.025Z,-0.43
2022-12-03T08:25:21.233Z,-0.39
2022-12-03T08:27:49.150Z,-0.36
2022-12-03T08:30:18.043Z,-0.32
2022-12-03T08:32:45.830Z,-0.26
2022-12-03T08:35:19.040Z,-0.21
2022-12-03T08:37:46.537Z,-0.19
2022-12-03T08:40:35.275Z,-0.19
2022-12-03T08:43:11.904Z,-0.18
2022-12-03T08:45:42.455Z,-0.21
2022-12-03T08:48:24.337Z,-0.20
2022-12-03T08:50:54.709Z,-0.17
2022-12-03T08:53:30.227Z,-0.13
2022-12-03T08:56:20.661Z,-0.11
2022-12-03T08:59:00.568Z,-0.11
2022-12-03T09:01:31.360Z,-0.15
2022-12-03T09:04:16.940Z,-0.17
2022-12-03T09:06:44.521Z,-0.18
2022-12-03T09:09:11.993Z,-0.20
2022-12-03T09:11:39.847Z,-0.22
2022-12-03T09:14:07.329Z,-0.23
2022-12-03T09:16:35.214Z,-0.22
2022-12-03T09:19:02.814Z,-0.21
2022-12-03T09:21:30.281Z,-0.19
2022-12-03T09:23:57.788Z,-0.17
2022-12-03T09:26:25.372Z,-0.14
2022-12-03T09:28:53.152Z,-0.16
2022-12-03T09:31:20.772Z,-0.14
2022-12-03T09:33:48.807Z,-0.12
2022-12-03T09:36:16.289Z,-0.13
2022-12-03T09:38:47.613Z,-0.13
2022-12-03T09:41:15.480Z,-0.12
2022-12-03T09:44:03.135Z,-0.14
2022-12-03T09:46:31.418Z,-0.13
2022-12-03T09:49:00.995Z,-0.12
2022-12-03T09:51:32.996Z,-0.10
2022-12-03T09:54:03.691Z,-0.09
2022-12-03T09:56:31.764Z,-0.08
2022-12-03T09:58:59.669Z,-0.07
2022-12-03T10:01:30.319Z,-0.04
2022-12-03T10:03:58.678Z,-0.03
2022-12-03T10:06:26.294Z,-0.02
2022-12-03T10:08:55.452Z,0.00
2022-12-03T10:11:25.367Z,0.03
2022-12-03T10:13:56.003Z,0.07
2022-12-03T10:16:24.776Z,0.11
2022-12-03T10:18:55.922Z,0.13
2022-12-03T10:21:36.397Z,0.12
2022-12-03T10:24:25.922Z,0.10
2022-12-03T10:26:56.505Z,0.07
2022-12-03T10:29:33.279Z,0.04
2022-12-03T10:32:03.734Z,0.01
2022-12-03T10:34:35.808Z,-0.00
2022-12-03T10:37:13.377Z,-0.04
2022-12-03T10:40:09.293Z,-0.03
2022-12-03T10:42:39.922Z,-0.01
2022-12-03T10:45:22.557Z,0.01
2022-12-03T10:48:13.684Z,0.02
2022-12-03T10:50:51.082Z,0.01
2022-12-03T10:53:20.741Z,-0.05
2022-12-03T10:55:51.295Z,-0.10
2022-12-03T10:58:22.972Z,-0.13
2022-12-03T11:00:52.635Z,-0.14
2022-12-03T11:03:23.064Z,-0.14
2022-12-03T11:05:51.956Z,-0.14
2022-12-03T11:08:25.352Z,-0.14
2022-12-03T11:11:00.069Z,-0.13
2022-12-03T11:13:33.778Z,-0.11
2022-12-03T11:16:03.050Z,-0.08
2022-12-03T11:18:36.733Z,-0.05
2022-12-03T11:21:07.887Z,0.02
2022-12-03T11:23:51.366Z,0.11
2022-12-03T11:26:38.787Z,0.18
2022-12-03T11:29:14.346Z,0.30
2022-12-03T11:31:45.192Z,0.45
2022-12-03T11:34:19.583Z,0.62
2022-12-03T11:37:09.220Z,0.83
2022-12-03T11:39:53.395Z,1.13
2022-12-03T11:42:25.323Z,1.44
2022-12-03T11:45:08.921Z,1.68
2022-12-03T11:47:42.975Z,1.91
2022-12-03T11:50:39.720Z,2.09
2022-12-03T11:53:07.765Z,2.16
2022-12-03T11:55:44.257Z,2.19
2022-12-03T11:58:29.345Z,2.18
2022-12-03T12:00:59.003Z,2.17
2022-12-03T12:03:33.313Z,2.16
2022-12-03T12:06:08.992Z,2.14
2022-12-03T12:08:55.608Z,2.13
2022-12-03T12:11:27.713Z,2.08
2022-12-03T12:13:58.220Z,1.97
2022-12-03T12:16:42.308Z,1.86
2022-12-03T12:19:43.030Z,1.76
2022-12-03T12:22:27.511Z,1.64
2022-12-03T12:24:59.220Z,1.58
2022-12-03T12:27:35.799Z,1.52
2022-12-03T12:30:21.670Z,1.46
2022-12-03T12:33:01.632Z,1.40
2022-12-03T12:35:32.926Z,1.34
2022-12-03T12:38:06.599Z,1.27
2022-12-03T12:40:36.540Z,1.21
2022-12-03T12:43:20.286Z,1.18
2022-12-03T12:45:53.753Z,1.16
2022-12-03T12:48:31.930Z,1.13
2022-12-03T12:50:59.833Z,1.12
2022-12-03T12:53:32.685Z,1.09
2022-12-03T12:56:22.452Z,1.05
2022-12-03T12:58:50.409Z,1.05
2022-12-03T13:01:27.526Z,1.06
2022-12-03T13:03:55.568Z,1.06
2022-12-03T13:06:29.862Z,1.07
2022-12-03T13:09:00.984Z,1.08
2022-12-03T13:11:47.388Z,1.08
2022-12-03T13:14:16.578Z,1.10
2022-12-03T13:16:45.031Z,1.13
2022-12-03T13:19:31.134Z,1.16
2022-12-03T13:22:01.598Z,1.17
2022-12-03T13:24:36.918Z,1.17
2022-12-03T13:27:20.393Z,1.18
2022-12-03T13:29:55.324Z,1.17
2022-12-03T13:32:22.897Z,1.15
2022-12-03T13:34:50.571Z,1.12
2022-12-03T13:37:28.122Z,1.06
2022-12-03T13:40:05.374Z,1.00
2022-12-03T13:42:39.040Z,0.93
2022-12-03T13:45:24.776Z,0.89
2022-12-03T13:47:58.749Z,0.85
2022-12-03T13:50:26.164Z,0.77
2022-12-03T13:52:54.517Z,0.72
2022-12-03T13:55:29.739Z,0.68
2022-12-03T13:57:57.692Z,0.62
2022-12-03T14:00:25.156Z,0.59
2022-12-03T14:02:52.715Z,0.56
2022-12-03T14:05:21.124Z,0.57
2022-12-03T14:07:48.840Z,0.58
2022-12-03T14:10:16.883Z,0.59
2022-12-03T14:12:44.335Z,0.60
2022-12-03T14:15:11.823Z,0.59
2022-12-03T14:17:39.336Z,0.59
2022-12-03T14:20:08.199Z,0.58
2022-12-03T14:22:38.059Z,0.55
2022-12-03T14:25:06.964Z,0.53
2022-12-03T14:27:34.848Z,0.50
2022-12-03T14:30:03.588Z,0.44
2022-12-03T14:32:31.501Z,0.40
2022-12-03T14:34:58.994Z,0.36
2022-12-03T14:37:26.457Z,0.34
2022-12-03T14:39:54.514Z,0.32
2022-12-03T14:42:22.279Z,0.31
2022-12-03T14:44:51.742Z,0.30
2022-12-03T14:47:22.634Z,0.32
2022-12-03T14:49:51.144Z,0.35
2022-12-03T14:52:19.328Z,0.36
2022-12-03T14:54:46.818Z,0.36
2022-12-03T14:57:15.325Z,0.38
2022-12-03T14:59:44.140Z,0.39
2022-12-03T15:02:12.287Z,0.37
2022-12-03T15:04:41.420Z,0.37
2022-12-03T15:07:09.464Z,0.36
2022-12-03T15:09:37.026Z,0.35
2022-12-03T15:12:04.847Z,0.34
2022-12-03T15:14:32.343Z,0.32
2022-12-03T15:16:59.896Z,0.29
2022-12-03T15:19:27.469Z,0.25
2022-12-03T15:21:54.916Z,0.25
2022-12-03T15:24:22.451Z,0.25
2022-12-03T15:26:52.120Z,0.28
2022-12-03T15:29:20.524Z,0.30
2022-12-03T15:31:48.125Z,0.33
2022-12-03T15:34:20.604Z,0.36
2022-12-03T15:36:51.148Z,0.37
2022-12-03T15:39:19.254Z,0.35
2022-12-03T15:41:47.063Z,0.35
2022-12-03T15:44:14.547Z,0.33
2022-12-03T15:46:42.117Z,0.31
2022-12-03T15:49:09.779Z,0.30
2022-12-03T15:51:37.251Z,0.30
2022-12-03T15:54:05.350Z,0.31
2022-12-03T15:56:35.598Z,0.32
2022-12-03T15:59:03.874Z,0.34
2022-12-03T16:01:31.570Z,0.34
2022-12-03T16:03:59.206Z,0.35
2022-12-03T16:06:26.682Z,0.36
2022-12-03T16:08:54.226Z,0.36
2022-12-03T16:11:21.837Z,0.35
2022-12-03T16:13:49.317Z,0.34
2022-12-03T16:16:16.883Z,0.32
2022-12-03T16:18:44.455Z,0.30
2022-12-03T16:21:11.934Z,0.29
2022-12-03T16:23:39.449Z,0.29
2022-12-03T16:26:07.179Z,0.29
2022-12-03T16:28:34.633Z,0.29
2022-12-03T16:31:02.191Z,0.31
2022-12-03T16:33:29.771Z,0.35
2022-12-03T16:35:57.335Z,0.36
2022-12-03T16:38:24.842Z,0.38
2022-12-03T16:40:52.429Z,0.36
2022-12-03T16:43:19.990Z,0.37
2022-12-03T16:46:03.498Z,0.36
2022-12-03T16:48:31.144Z,0.35
2022-12-03T16:50:58.684Z,0.34
2022-12-03T16:53:26.228Z,0.33
2022-12-03T16:55:53.688Z,0.34
2022-12-03T16:58:21.510Z,0.37
2022-12-03T17:00:49.609Z,0.40
2022-12-03T17:03:20.074Z,0.41
2022-12-03T17:05:47.675Z,0.41
2022-12-03T17:08:16.531Z,0.43
2022-12-03T17:10:44.547Z,0.43
2022-12-03T17:13:12.481Z,0.44
2022-12-03T17:15:40.576Z,0.44
2022-12-03T17:18:08.557Z,0.45
2022-12-03T17:20:37.200Z,0.45
2022-12-03T17:23:04.713Z,0.44
2022-12-03T17:25:32.757Z,0.43
2022-12-03T17:28:01.203Z,0.45
2022-12-03T17:30:28.687Z,0.48
2022-12-03T17:32:56.483Z,0.51
2022-12-03T17:35:25.046Z,0.54
2022-12-03T17:37:52.572Z,0.53
2022-12-03T17:40:20.130Z,0.52
2022-12-03T17:42:47.627Z,0.51
2022-12-03T17:45:15.170Z,0.53
2022-12-03T17:47:42.650Z,0.53
2022-12-03T17:50:10.507Z,0.52
2022-12-03T17:52:37.988Z,0.52
2022-12-03T17:55:12.791Z,0.51
2022-12-03T17:57:42.108Z,0.55
2022-12-03T18:00:10.117Z,0.59
2022-12-03T18:02:37.656Z,0.64
2022-12-03T18:05:05.450Z,0.67
2022-12-03T18:07:33.035Z,0.71
2022-12-03T18:10:00.803Z,0.73
2022-12-03T18:12:28.306Z,0.73
2022-12-03T18:14:55.771Z,0.71
2022-12-03T18:17:23.263Z,0.69
2022-12-03T18:19:50.853Z,0.69
2022-12-03T18:22:19.120Z,0.69
2022-12-03T18:24:51.491Z,0.71
2022-12-03T18:27:23.829Z,0.74
2022-12-03T18:29:51.781Z,0.75
2022-12-03T18:32:29.388Z,0.78
2022-12-03T18:34:58.026Z,0.78
2022-12-03T18:37:27.875Z,0.78
2022-12-03T18:39:57.573Z,0.80
2022-12-03T18:42:25.842Z,0.80
2022-12-03T18:44:55.250Z,0.80
2022-12-03T18:47:26.609Z,0.79
2022-12-03T18:49:56.365Z,0.79
2022-12-03T18:52:25.193Z,0.81
2022-12-03T18:54:53.194Z,0.83
2022-12-03T18:57:20.705Z,0.88
2022-12-03T18:59:48.231Z,0.92
2022-12-03T19:02:53.704Z,0.96
2022-12-03T19:05:05.687Z,0.99
2022-12-03T19:07:33.463Z,1.00
2022-12-03T19:10:01.088Z,1.00
2022-12-03T19:12:28.675Z,1.00
2022-12-03T19:14:56.425Z,1.00
2022-12-03T19:17:24.224Z,0.99
2022-12-03T19:19:51.907Z,0.99
2022-12-03T19:22:19.692Z,0.99
2022-12-03T19:24:47.175Z,1.00
2022-12-03T19:27:15.039Z,1.01
2022-12-03T19:29:42.511Z,1.02
2022-12-03T19:32:10.043Z,1.06
2022-12-03T19:34:38.089Z,1.08
2022-12-03T19:37:05.572Z,1.10
2022-12-03T19:39:33.171Z,1.13
2022-12-03T19:42:00.714Z,1.14
2022-12-03T19:44:28.196Z,1.14
2022-12-03T19:46:57.170Z,1.12
2022-12-03T19:49:25.532Z,1.12
2022-12-03T19:51:53.083Z,1.11
2022-12-03T19:54:20.598Z,1.10
2022-12-03T19:56:48.125Z,1.09
2022-12-03T19:59:15.649Z,1.08
2022-12-03T20:01:43.683Z,1.08
2022-12-03T20:04:12.363Z,1.08
2022-12-03T20:06:40.256Z,1.07
2022-12-03T20:09:11.954Z,1.09
2022-12-03T20:11:41.194Z,1.11
2022-12-03T20:14:12.266Z,1.13
2022-12-03T20:16:40.000Z,1.14
2022-12-03T20:19:10.064Z,1.17
2022-12-03T20:21:38.817Z,1.21
2022-12-03T20:24:08.449Z,1.23
2022-12-03T20:26:35.966Z,1.23
2022-12-03T20:29:03.650Z,1.22
2022-12-03T20:31:32.303Z,1.21
2022-12-03T20:34:03.317Z,1.23
2022-12-03T20:36:32.298Z,1.24
2022-12-03T20:39:02.762Z,1.25
2022-12-03T20:41:30.343Z,1.27
2022-12-03T20:43:57.961Z,1.28
2022-12-03T20:46:31.045Z,1.28
2022-12-03T20:48:59.029Z,1.29
2022-12-03T20:51:29.722Z,1.29
2022-12-03T20:53:58.566Z,1.27
2022-12-03T20:56:31.077Z,1.26
2022-12-03T20:59:04.923Z,1.25
2022-12-03T21:01:33.202Z,1.25
2022-12-03T21:04:00.853Z,1.28
2022-12-03T21:06:29.908Z,1.33
2022-12-03T21:08:59.026Z,1.37
2022-12-03T21:11:29.966Z,1.40
2022-12-03T21:13:58.911Z,1.42
2022-12-03T21:16:59.412Z,1.42
2022-12-03T21:19:18.530Z,1.41
2022-12-03T21:21:46.016Z,1.44
2022-12-03T21:24:13.868Z,1.46
2022-12-03T21:26:41.440Z,1.50
2022-12-03T21:29:09.586Z,1.53
2022-12-03T21:31:38.388Z,1.54
2022-12-03T21:34:06.007Z,1.57
2022-12-03T21:36:33.484Z,1.61
2022-12-03T21:39:01.079Z,1.61
2022-12-03T21:41:28.540Z,1.63
2022-12-03T21:43:56.073Z,1.63
2022-12-03T21:47:12.204Z,1.62
2022-12-03T21:49:10.988Z,1.62
2022-12-03T21:51:38.506Z,1.63
2022-12-03T21:54:05.980Z,1.65
2022-12-03T21:56:33.520Z,1.67
2022-12-03T21:59:01.053Z,1.69
2022-12-03T22:01:28.637Z,1.71
2022-12-03T22:03:56.295Z,1.71
2022-12-03T22:06:23.989Z,1.71
2022-12-03T22:08:51.706Z,1.71
2022-12-03T22:11:22.045Z,1.67
2022-12-03T22:13:49.854Z,1.68
2022-12-03T22:16:20.047Z,1.71
2022-12-03T22:18:48.366Z,1.76
2022-12-03T22:21:19.171Z,1.78
2022-12-03T22:23:46.707Z,1.79
2022-12-03T22:26:16.342Z,1.80
2022-12-03T22:28:45.855Z,1.81
2022-12-03T22:31:14.337Z,1.82
2022-12-03T22:33:43.330Z,1.80
2022-12-03T22:36:18.317Z,1.79
2022-12-03T22:38:47.843Z,1.80
2022-12-03T22:41:16.298Z,1.82
2022-12-03T22:43:45.123Z,1.84
2022-12-03T22:46:13.514Z,1.83
2022-12-03T22:48:43.095Z,1.84
2022-12-03T22:51:23.256Z,1.87
2022-12-03T22:53:55.604Z,1.87
2022-12-03T22:56:24.427Z,1.85
2022-12-03T22:58:51.980Z,1.83
2022-12-03T23:01:37.762Z,1.81
2022-12-03T23:04:06.598Z,1.81
2022-12-03T23:06:36.402Z,1.82
2022-12-03T23:09:06.114Z,1.83
2022-12-03T23:11:34.376Z,1.85
2022-12-03T23:14:02.334Z,1.88
2022-12-03T23:16:33.040Z,1.90
2022-12-03T23:19:02.790Z,1.89
2022-12-03T23:21:33.069Z,1.87
2022-12-03T23:24:02.590Z,1.86
2022-12-03T23:26:30.192Z,1.85
2022-12-03T23:28:57.666Z,1.85
2022-12-03T23:31:29.547Z,1.86
2022-12-03T23:33:58.663Z,1.89
2022-12-03T23:36:29.280Z,1.91
2022-12-03T23:38:56.907Z,1.89
2022-12-03T23:41:24.956Z,1.87
2022-12-03T23:43:53.077Z,1.87
2022-12-03T23:46:26.105Z,1.89
2022-12-03T23:48:54.393Z,1.90
2022-12-03T23:51:24.501Z,1.89
2022-12-03T23:53:54.176Z,1.89
2022-12-03T23:56:25.402Z,1.87
2022-12-03T23:58:52.959Z,1.84
